KBBG

Details ICAO KBBG (BKG)
Name Branson Regional Airport
Region United States
Timezone America/Chicago (UTC-5.0)
Plans Departing 7
Arriving 30
Stats Elevation 1,303 ft / 397 m (AMSL)
Location 36.532082° -93.200545°
Runways 1
Magnetic Variation 0.772° E
Sunrise 2018-05-22 11:02:15 UTC / 2018-05-22 06:02:15 Local
Sunset 2018-05-23 01:19:35 UTC / 2018-05-22 20:19:35 Local
Advertisement - Login to hide

Runways

ID Width Length Bearing (true) Bearing (mag) Surface Threshold Offset Overrun Length
14 148 ft / 45 m 7,147 ft / 2,178 m 145.13° 144.36° Concrete 0 ft / 0 m 200 ft / 61 m
32 148 ft / 45 m 7,147 ft / 2,178 m 325.14° 324.37° Concrete 0 ft / 0 m 200 ft / 61 m

Map

Weather


0- 5 10 15 20 25 30 35+ Temperature / ° C

Clouds and Precipitation
Forecast for 2018-05-22 12:00 UTC. Updated 5 hours ago

Ground ~20,000 ft ~40,000 ft Winds

METAR

KBBG 221545Z 00000KT 10SM SCT022 BKN033 BKN250 25/19 A3010

TAF

TAF KBBG 221120Z 2212/2312 VRB04KT 4SM BR SKC FM221300 VRB04KT P6SM SKC FM221700 VRB04KT P6SM SCT050 BKN250
Warning: Do not use this data for real-world aviation or navigation. No guarantee of current accuracy is given.